Time;durP1;ratioP1;P1;durP2;ratioP2;P2;SDS_P1;SDS_P2;PMS_P1;PMS_P2;Temp;Humidity;BMP_temperature;BMP_pressure;BME280_temperature;BME280_humidity;BME280_pressure;Samples;Min_cycle;Max_cycle;Signal;HPM_P1;HPM_P2
2024/01/03 00:01:17;;;;;;;24.35;4.28;;;;;;;;;;5028097;28;20041;-77
2024/01/03 00:03:43;;;;;;;23.08;2.90;;;;;;;;;;5029698;28;20200;-76
2024/01/03 00:06:12;;;;;;;19.27;3.38;;;;;;;;;;5030843;28;20026;-76
2024/01/03 00:08:38;;;;;;;19.15;2.95;;;;;;;;;;5022494;28;20034;-79
2024/01/03 00:11:05;;;;;;;14.85;2.38;;;;;;;;;;5013932;28;20348;-77
2024/01/03 00:13:50;;;;;;;19.90;3.22;;;;;;;;;;5011072;28;20034;-78
2024/01/03 00:16:19;;;;;;;14.30;2.83;;;;;;;;;;5011066;28;20044;-78
2024/01/03 00:18:45;;;;;;;13.48;2.70;;;;;;;;;;5010867;28;20030;-77
2024/01/03 00:21:15;;;;;;;23.38;3.28;;;;;;;;;;5012833;28;20046;-76
2024/01/03 00:23:55;;;;;;;25.40;3.33;;;;;;;;;;5021381;28;20079;-77
2024/01/03 00:26:22;;;;;;;25.42;4.28;;;;;;;;;;5062380;28;20026;-78
2024/01/03 00:28:48;;;;;;;30.58;4.22;;;;;;;;;;5029398;28;20037;-76
2024/01/03 00:31:34;;;;;;;32.78;3.70;;;;;;;;;;5012862;28;20113;-77
2024/01/03 00:34:00;;;;;;;27.80;3.50;;;;;;;;;;5030642;28;20046;-76
2024/01/03 00:36:26;;;;;;;28.55;4.38;;;;;;;;;;5030643;28;20049;-77
2024/01/03 00:38:52;;;;;;;31.45;3.17;;;;;;;;;;5029612;28;20025;-75
2024/01/03 00:41:18;;;;;;;28.35;4.40;;;;;;;;;;5030658;28;20133;-77
2024/01/03 00:43:45;;;;;;;32.25;3.67;;;;;;;;;;5030390;28;20021;-76
2024/01/03 00:46:11;;;;;;;26.08;3.08;;;;;;;;;;5012875;28;20033;-75
2024/01/03 00:48:38;;;;;;;27.00;4.00;;;;;;;;;;5062155;28;20407;-77
2024/01/03 00:51:05;;;;;;;26.65;4.20;;;;;;;;;;5030593;28;20212;-76
2024/01/03 00:53:31;;;;;;;27.77;3.42;;;;;;;;;;5015376;28;20034;-76
2024/01/03 00:55:58;;;;;;;27.85;4.25;;;;;;;;;;5010415;28;20372;-75
2024/01/03 00:58:24;;;;;;;31.02;5.05;;;;;;;;;;5010557;28;20467;-76
2024/01/03 01:00:50;;;;;;;35.67;5.45;;;;;;;;;;5024987;28;20057;-76
2024/01/03 01:03:18;;;;;;;38.80;5.13;;;;;;;;;;5024713;28;20551;-77
2024/01/03 01:05:44;;;;;;;38.20;4.40;;;;;;;;;;5046029;28;20032;-75
2024/01/03 01:08:10;;;;;;;26.73;5.18;;;;;;;;;;5060409;28;20133;-76
2024/01/03 01:10:37;;;;;;;37.67;5.03;;;;;;;;;;5028286;28;20038;-77
2024/01/03 01:13:03;;;;;;;40.50;4.60;;;;;;;;;;5011513;28;20398;-77
2024/01/03 01:15:29;;;;;;;34.67;5.97;;;;;;;;;;5009768;28;20491;-77
2024/01/03 01:17:55;;;;;;;32.05;5.13;;;;;;;;;;5025445;28;20088;-78
2024/01/03 01:20:21;;;;;;;35.58;5.63;;;;;;;;;;5029023;28;20075;-76
2024/01/03 01:22:48;;;;;;;39.63;5.53;;;;;;;;;;5010649;28;20120;-77
2024/01/03 01:25:15;;;;;;;42.97;6.28;;;;;;;;;;5029532;28;20036;-78
2024/01/03 01:27:42;;;;;;;52.05;7.78;;;;;;;;;;5029544;28;20044;-76
2024/01/03 01:30:08;;;;;;;42.67;5.97;;;;;;;;;;5019661;28;20468;-77
2024/01/03 01:32:34;;;;;;;43.72;6.03;;;;;;;;;;5009447;28;20167;-77
2024/01/03 01:35:00;;;;;;;40.83;6.47;;;;;;;;;;5008204;28;20049;-77
2024/01/03 01:37:26;;;;;;;39.28;5.75;;;;;;;;;;5040677;28;20052;-77
2024/01/03 01:39:56;;;;;;;39.17;5.28;;;;;;;;;;5027415;28;20037;-77
2024/01/03 01:42:25;;;;;;;36.85;5.22;;;;;;;;;;5029521;28;20029;-77
2024/01/03 01:44:51;;;;;;;37.25;4.80;;;;;;;;;;5029069;28;20035;-77
2024/01/03 01:47:18;;;;;;;36.97;5.95;;;;;;;;;;5028513;28;20029;-76
2024/01/03 01:49:44;;;;;;;29.23;5.38;;;;;;;;;;5052738;28;20087;-77
2024/01/03 01:52:11;;;;;;;44.03;5.35;;;;;;;;;;5049549;28;20136;-76
2024/01/03 01:54:38;;;;;;;40.40;5.97;;;;;;;;;;5032124;28;20040;-76
2024/01/03 01:57:04;;;;;;;41.22;6.03;;;;;;;;;;5028359;28;20108;-77
2024/01/03 01:59:31;;;;;;;35.30;5.82;;;;;;;;;;5028331;28;20061;-77
2024/01/03 02:01:58;;;;;;;44.22;6.35;;;;;;;;;;5046176;28;20037;-76
2024/01/03 02:04:25;;;;;;;31.25;5.22;;;;;;;;;;5044238;28;20038;-77
2024/01/03 02:06:51;;;;;;;43.10;6.05;;;;;;;;;;5046202;28;20038;-77
2024/01/03 02:09:18;;;;;;;34.78;7.15;;;;;;;;;;5018435;28;20030;-77
2024/01/03 02:11:48;;;;;;;29.77;4.50;;;;;;;;;;5009518;28;20038;-77
2024/01/03 02:14:14;;;;;;;38.65;4.97;;;;;;;;;;5009472;28;20042;-77
2024/01/03 02:16:40;;;;;;;34.38;6.07;;;;;;;;;;5008852;28;20033;-76
2024/01/03 02:19:06;;;;;;;40.33;5.15;;;;;;;;;;5008904;28;20042;-77
2024/01/03 02:21:32;;;;;;;33.88;5.63;;;;;;;;;;5010831;28;20115;-76
2024/01/03 02:23:59;;;;;;;34.67;5.88;;;;;;;;;;5015072;28;20372;-76
2024/01/03 02:26:25;;;;;;;31.60;4.38;;;;;;;;;;5030189;28;20096;-76
2024/01/03 02:28:51;;;;;;;28.65;4.43;;;;;;;;;;5031622;28;20088;-77
2024/01/03 02:31:17;;;;;;;31.88;4.20;;;;;;;;;;5030991;28;20022;-76
2024/01/03 02:33:43;;;;;;;26.25;4.65;;;;;;;;;;5027805;28;20065;-76
2024/01/03 02:36:10;;;;;;;26.50;5.20;;;;;;;;;;4997752;28;20037;-78
2024/01/03 02:38:36;;;;;;;30.52;5.40;;;;;;;;;;5030612;28;20433;-77
2024/01/03 02:41:02;;;;;;;29.23;4.18;;;;;;;;;;5029862;28;20180;-76
2024/01/03 02:43:29;;;;;;;33.10;4.53;;;;;;;;;;5013469;28;20022;-78
2024/01/03 02:45:55;;;;;;;26.45;4.57;;;;;;;;;;5030273;28;20087;-77
2024/01/03 02:48:21;;;;;;;33.20;4.40;;;;;;;;;;5028691;28;20033;-77
2024/01/03 02:50:48;;;;;;;30.50;6.72;;;;;;;;;;5030995;28;20025;-76
2024/01/03 02:53:17;;;;;;;36.95;4.97;;;;;;;;;;5031030;28;20140;-77
2024/01/03 02:55:43;;;;;;;31.20;4.72;;;;;;;;;;5028557;28;20553;-78
2024/01/03 02:58:09;;;;;;;26.20;5.00;;;;;;;;;;5032209;28;20369;-78
2024/01/03 03:00:36;;;;;;;33.60;4.68;;;;;;;;;;5030374;28;20029;-77
2024/01/03 03:03:02;;;;;;;31.77;4.65;;;;;;;;;;5030781;28;20065;-77
2024/01/03 03:05:30;;;;;;;34.35;4.88;;;;;;;;;;5028595;28;20029;-77
2024/01/03 03:07:56;;;;;;;31.80;6.07;;;;;;;;;;5028659;28;20030;-77
2024/01/03 03:10:22;;;;;;;31.08;4.43;;;;;;;;;;5029713;28;20052;-77
2024/01/03 03:12:48;;;;;;;27.30;4.70;;;;;;;;;;5029545;28;20086;-76
2024/01/03 03:15:14;;;;;;;31.23;4.78;;;;;;;;;;5027545;28;20079;-77
2024/01/03 03:17:41;;;;;;;31.88;5.50;;;;;;;;;;5030170;28;20034;-77
2024/01/03 03:20:07;;;;;;;31.40;5.22;;;;;;;;;;5031435;28;20029;-77
2024/01/03 03:22:33;;;;;;;36.05;5.32;;;;;;;;;;5031839;28;20128;-76
2024/01/03 03:24:59;;;;;;;30.95;4.90;;;;;;;;;;5029454;28;20475;-75
2024/01/03 03:27:25;;;;;;;30.60;4.55;;;;;;;;;;5030029;28;20056;-75
2024/01/03 03:29:52;;;;;;;25.75;4.57;;;;;;;;;;5031181;28;20018;-77
2024/01/03 03:32:18;;;;;;;35.53;5.85;;;;;;;;;;5031468;28;20057;-76
2024/01/03 03:34:44;;;;;;;35.85;5.55;;;;;;;;;;5032968;28;20049;-76
2024/01/03 03:37:10;;;;;;;35.05;4.80;;;;;;;;;;5043111;28;20064;-77
2024/01/03 03:39:36;;;;;;;32.55;5.32;;;;;;;;;;5032023;28;20034;-76
2024/01/03 03:42:02;;;;;;;40.95;5.07;;;;;;;;;;5040543;28;20036;-76
2024/01/03 03:44:29;;;;;;;32.30;4.90;;;;;;;;;;5037620;28;20083;-76
2024/01/03 03:46:55;;;;;;;39.08;6.00;;;;;;;;;;5031128;28;20172;-78
2024/01/03 03:49:21;;;;;;;48.22;6.63;;;;;;;;;;5030039;28;20033;-76
2024/01/03 03:51:47;;;;;;;36.42;5.20;;;;;;;;;;5033265;28;20064;-77
2024/01/03 03:54:13;;;;;;;43.03;6.15;;;;;;;;;;5040737;28;20385;-75
2024/01/03 03:56:39;;;;;;;42.83;6.43;;;;;;;;;;5032211;28;20038;-77
2024/01/03 03:59:07;;;;;;;42.25;5.53;;;;;;;;;;5046939;28;20029;-78
2024/01/03 04:01:33;;;;;;;40.85;5.95;;;;;;;;;;5028843;28;20613;-77
2024/01/03 04:03:59;;;;;;;38.78;5.90;;;;;;;;;;5031710;28;20029;-78
2024/01/03 04:06:25;;;;;;;39.83;6.30;;;;;;;;;;5035556;28;20028;-77
2024/01/03 04:08:52;;;;;;;41.65;5.88;;;;;;;;;;5042946;28;20025;-75
2024/01/03 04:11:18;;;;;;;51.10;7.35;;;;;;;;;;5039926;28;20029;-78
2024/01/03 04:13:44;;;;;;;50.28;6.45;;;;;;;;;;5049704;28;20059;-76
2024/01/03 04:16:10;;;;;;;61.22;8.18;;;;;;;;;;5033580;28;20036;-77
2024/01/03 04:18:37;;;;;;;43.15;6.85;;;;;;;;;;5048871;28;20041;-76
2024/01/03 04:21:06;;;;;;;38.83;6.57;;;;;;;;;;5041271;28;20025;-77
2024/01/03 04:23:32;;;;;;;39.47;6.30;;;;;;;;;;5041461;28;20060;-76
2024/01/03 04:25:58;;;;;;;36.00;6.00;;;;;;;;;;5038646;28;20039;-77
2024/01/03 04:28:25;;;;;;;42.80;6.28;;;;;;;;;;5049218;28;20025;-77
2024/01/03 04:30:51;;;;;;;52.85;8.00;;;;;;;;;;5044374;28;20021;-77
2024/01/03 04:33:17;;;;;;;39.25;7.22;;;;;;;;;;5031657;28;20045;-76
2024/01/03 04:35:43;;;;;;;42.33;7.30;;;;;;;;;;5043433;28;20060;-77
2024/01/03 04:38:09;;;;;;;37.55;6.55;;;;;;;;;;5028469;28;20059;-76
2024/01/03 04:40:35;;;;;;;47.50;7.43;;;;;;;;;;5027125;28;20069;-77
2024/01/03 04:43:01;;;;;;;43.70;6.35;;;;;;;;;;5028976;28;20083;-75
2024/01/03 04:45:27;;;;;;;41.90;6.45;;;;;;;;;;5030069;28;20056;-76
2024/01/03 04:47:54;;;;;;;47.90;8.07;;;;;;;;;;5049046;28;20120;-77
2024/01/03 04:50:20;;;;;;;50.17;7.32;;;;;;;;;;5047171;28;20099;-76
2024/01/03 04:52:46;;;;;;;50.95;6.60;;;;;;;;;;5049221;28;20582;-77
2024/01/03 04:55:12;;;;;;;48.63;5.72;;;;;;;;;;5045391;28;20548;-77
2024/01/03 04:57:39;;;;;;;59.72;9.65;;;;;;;;;;5044022;28;20030;-76
2024/01/03 05:00:05;;;;;;;42.97;5.80;;;;;;;;;;5035853;28;20018;-75
2024/01/03 05:02:31;;;;;;;41.30;5.97;;;;;;;;;;5044268;28;20029;-76
2024/01/03 05:04:57;;;;;;;56.00;8.10;;;;;;;;;;5047751;28;20025;-77
2024/01/03 05:07:24;;;;;;;47.28;6.68;;;;;;;;;;5031597;28;20025;-75
2024/01/03 05:09:50;;;;;;;51.72;8.55;;;;;;;;;;5034402;28;20036;-76
2024/01/03 05:12:17;;;;;;;48.25;7.70;;;;;;;;;;5038156;28;20067;-76
2024/01/03 05:14:43;;;;;;;51.03;7.65;;;;;;;;;;5046746;28;20052;-76
2024/01/03 05:17:09;;;;;;;43.75;7.53;;;;;;;;;;5044821;28;20041;-75
2024/01/03 05:19:35;;;;;;;45.53;7.18;;;;;;;;;;5037681;28;20076;-76
2024/01/03 05:22:01;;;;;;;48.40;8.88;;;;;;;;;;5030105;28;20041;-76
2024/01/03 05:24:27;;;;;;;44.80;6.97;;;;;;;;;;5029499;28;20048;-75
2024/01/03 05:26:53;;;;;;;41.85;7.18;;;;;;;;;;5046349;28;20024;-76
2024/01/03 05:29:20;;;;;;;46.67;7.03;;;;;;;;;;5049212;28;20125;-76
2024/01/03 05:31:46;;;;;;;49.60;6.22;;;;;;;;;;5048840;28;20072;-77
2024/01/03 05:34:12;;;;;;;42.58;6.30;;;;;;;;;;5045308;28;20135;-75
2024/01/03 05:36:38;;;;;;;46.95;6.65;;;;;;;;;;5029817;28;20038;-76
2024/01/03 05:39:04;;;;;;;47.08;6.65;;;;;;;;;;5028769;28;20136;-76
2024/01/03 05:41:30;;;;;;;52.40;7.20;;;;;;;;;;5028478;28;20522;-76
2024/01/03 05:43:56;;;;;;;41.13;5.90;;;;;;;;;;5028935;28;20026;-77
2024/01/03 05:46:22;;;;;;;48.83;7.75;;;;;;;;;;5028612;28;20489;-77
2024/01/03 05:48:48;;;;;;;49.08;5.72;;;;;;;;;;5027390;28;20368;-77
2024/01/03 05:51:16;;;;;;;68.53;7.50;;;;;;;;;;5028713;28;20025;-76
2024/01/03 05:53:47;;;;;;;61.15;9.07;;;;;;;;;;5071232;28;20033;-76
2024/01/03 05:56:14;;;;;;;50.28;6.90;;;;;;;;;;5029478;28;20112;-76
2024/01/03 05:58:42;;;;;;;43.63;5.32;;;;;;;;;;5029685;28;20061;-76
2024/01/03 06:01:08;;;;;;;52.67;6.55;;;;;;;;;;5028943;28;20033;-77
2024/01/03 06:03:35;;;;;;;41.78;5.43;;;;;;;;;;5029142;28;20065;-75
2024/01/03 06:06:01;;;;;;;39.65;6.07;;;;;;;;;;5029330;28;20041;-75
2024/01/03 06:08:27;;;;;;;34.60;5.90;;;;;;;;;;5029431;28;20042;-75
2024/01/03 06:10:53;;;;;;;30.73;5.43;;;;;;;;;;5028894;28;20045;-76
2024/01/03 06:13:19;;;;;;;38.10;5.43;;;;;;;;;;5014896;28;20026;-76
2024/01/03 06:15:46;;;;;;;43.60;6.63;;;;;;;;;;5007374;28;20121;-75
2024/01/03 06:18:12;;;;;;;36.53;5.30;;;;;;;;;;5008294;28;20057;-77
2024/01/03 06:20:38;;;;;;;34.25;5.07;;;;;;;;;;5008062;28;20080;-75
2024/01/03 06:23:04;;;;;;;35.17;5.35;;;;;;;;;;5008333;28;20041;-76
2024/01/03 06:25:31;;;;;;;31.35;5.13;;;;;;;;;;5007950;28;20083;-76
2024/01/03 06:27:58;;;;;;;33.20;4.43;;;;;;;;;;5007924;28;20046;-77
2024/01/03 06:30:24;;;;;;;33.15;5.00;;;;;;;;;;5012633;28;20168;-77
2024/01/03 06:32:51;;;;;;;27.48;3.72;;;;;;;;;;5028683;28;20045;-81
2024/01/03 06:35:17;;;;;;;30.15;5.63;;;;;;;;;;5028582;28;20076;-79
2024/01/03 06:37:43;;;;;;;28.90;4.80;;;;;;;;;;5028595;28;20046;-76
2024/01/03 06:40:10;;;;;;;28.45;4.28;;;;;;;;;;5028710;28;20130;-75
2024/01/03 06:42:36;;;;;;;34.17;4.00;;;;;;;;;;5028373;28;20113;-76
2024/01/03 06:45:02;;;;;;;38.80;5.35;;;;;;;;;;5060213;28;20025;-76
2024/01/03 06:47:28;;;;;;;34.58;5.32;;;;;;;;;;5027142;28;20499;-76
2024/01/03 06:49:54;;;;;;;34.33;5.13;;;;;;;;;;5027123;28;20033;-75
2024/01/03 06:52:20;;;;;;;28.60;4.55;;;;;;;;;;5028623;28;20036;-77
2024/01/03 06:54:46;;;;;;;31.75;5.35;;;;;;;;;;5030256;28;20041;-76
2024/01/03 06:57:12;;;;;;;31.65;5.18;;;;;;;;;;5030828;28;20801;-77
2024/01/03 06:59:39;;;;;;;28.05;4.25;;;;;;;;;;5028482;28;20045;-78
2024/01/03 07:02:05;;;;;;;27.30;4.25;;;;;;;;;;5028680;28;20037;-76
2024/01/03 07:04:31;;;;;;;28.77;4.72;;;;;;;;;;5028350;28;20075;-76
2024/01/03 07:06:58;;;;;;;33.28;5.13;;;;;;;;;;5028678;28;20026;-76
2024/01/03 07:09:24;;;;;;;27.33;4.60;;;;;;;;;;5029164;28;20057;-79
2024/01/03 07:11:51;;;;;;;34.88;5.03;;;;;;;;;;5029580;28;20162;-76
2024/01/03 07:14:17;;;;;;;25.98;3.80;;;;;;;;;;5032577;28;20048;-76
2024/01/03 07:16:43;;;;;;;27.20;4.75;;;;;;;;;;5032418;28;20447;-76
2024/01/03 07:19:09;;;;;;;29.25;4.50;;;;;;;;;;5032212;28;20069;-75
2024/01/03 07:21:35;;;;;;;25.83;3.78;;;;;;;;;;5032425;28;20120;-76
2024/01/03 07:24:01;;;;;;;37.20;4.97;;;;;;;;;;5030582;28;20508;-76
2024/01/03 07:26:27;;;;;;;28.23;3.90;;;;;;;;;;5032511;28;20037;-77
2024/01/03 07:28:53;;;;;;;32.78;4.15;;;;;;;;;;5031844;28;20037;-76
2024/01/03 07:31:19;;;;;;;30.95;3.58;;;;;;;;;;5032250;28;20033;-77
2024/01/03 07:33:46;;;;;;;32.28;4.20;;;;;;;;;;5031477;28;20669;-77
2024/01/03 07:36:12;;;;;;;22.63;2.97;;;;;;;;;;5011854;28;20034;-77
2024/01/03 07:38:38;;;;;;;24.65;3.15;;;;;;;;;;5011467;28;20030;-78
2024/01/03 07:41:04;;;;;;;47.38;4.22;;;;;;;;;;5011315;28;20034;-77
2024/01/03 07:43:30;;;;;;;27.63;3.28;;;;;;;;;;5011305;28;20407;-76
2024/01/03 07:45:58;;;;;;;35.28;4.93;;;;;;;;;;5043001;28;20076;-78
2024/01/03 07:48:24;;;;;;;36.05;3.45;;;;;;;;;;5011277;28;20045;-74
2024/01/03 07:50:51;;;;;;;26.80;5.03;;;;;;;;;;5046993;28;20033;-76
2024/01/03 07:53:17;;;;;;;31.33;4.18;;;;;;;;;;5037680;28;20048;-75
2024/01/03 07:55:43;;;;;;;37.25;3.85;;;;;;;;;;5045113;28;20041;-78
2024/01/03 07:58:09;;;;;;;36.30;4.20;;;;;;;;;;5039797;28;20063;-76
2024/01/03 08:00:35;;;;;;;35.35;5.20;;;;;;;;;;5031225;28;20044;-76
2024/01/03 08:03:02;;;;;;;36.38;3.55;;;;;;;;;;5041730;28;20056;-76
2024/01/03 08:05:28;;;;;;;48.92;6.50;;;;;;;;;;5050699;28;20071;-75
2024/01/03 08:07:54;;;;;;;36.83;5.15;;;;;;;;;;5052578;28;20029;-76
2024/01/03 08:10:20;;;;;;;38.63;4.68;;;;;;;;;;5052053;28;20029;-76
2024/01/03 08:12:46;;;;;;;42.63;5.50;;;;;;;;;;5051826;28;20037;-75
2024/01/03 08:15:12;;;;;;;43.70;5.57;;;;;;;;;;5050604;28;20263;-76
2024/01/03 08:17:38;;;;;;;47.40;4.82;;;;;;;;;;5050687;28;20044;-76
2024/01/03 08:20:05;;;;;;;50.25;6.25;;;;;;;;;;5050960;28;20028;-76
2024/01/03 08:22:31;;;;;;;33.70;4.53;;;;;;;;;;5050718;28;20401;-76
2024/01/03 08:24:57;;;;;;;42.78;5.53;;;;;;;;;;5049795;28;20029;-75
2024/01/03 08:27:23;;;;;;;51.78;6.25;;;;;;;;;;5050720;28;20048;-76
2024/01/03 08:29:51;;;;;;;39.55;4.47;;;;;;;;;;5050570;28;20021;-76
2024/01/03 08:32:17;;;;;;;47.25;5.82;;;;;;;;;;5050590;28;20040;-76
2024/01/03 08:34:46;;;;;;;44.10;5.55;;;;;;;;;;5042490;28;20124;-76
2024/01/03 08:37:12;;;;;;;48.17;6.90;;;;;;;;;;5030845;28;20022;-75
2024/01/03 08:39:38;;;;;;;40.47;4.90;;;;;;;;;;5030414;28;20092;-77
2024/01/03 08:42:04;;;;;;;44.15;6.53;;;;;;;;;;5062449;28;20033;-75
2024/01/03 08:44:31;;;;;;;54.78;6.47;;;;;;;;;;5030490;28;20029;-76
2024/01/03 08:46:58;;;;;;;44.78;4.60;;;;;;;;;;5030620;28;20021;-76
2024/01/03 08:49:24;;;;;;;45.15;5.68;;;;;;;;;;5030868;28;20068;-76
2024/01/03 08:51:50;;;;;;;42.30;5.55;;;;;;;;;;5062952;28;20029;-76
2024/01/03 08:54:16;;;;;;;41.78;6.43;;;;;;;;;;5030373;28;20034;-76
2024/01/03 08:56:42;;;;;;;46.13;5.25;;;;;;;;;;5030348;28;20040;-77
2024/01/03 08:59:09;;;;;;;36.45;5.07;;;;;;;;;;5030271;28;20102;-76
2024/01/03 09:01:35;;;;;;;45.05;5.15;;;;;;;;;;5029913;28;20101;-76
2024/01/03 09:04:02;;;;;;;41.85;4.90;;;;;;;;;;5029663;28;20159;-75
2024/01/03 09:06:28;;;;;;;38.90;5.55;;;;;;;;;;5028353;28;20036;-78
2024/01/03 09:08:54;;;;;;;35.78;6.00;;;;;;;;;;5029421;28;20052;-78
2024/01/03 09:11:25;;;;;;;43.83;5.47;;;;;;;;;;5029663;28;20037;-77
2024/01/03 09:13:56;;;;;;;35.03;5.15;;;;;;;;;;5029665;28;20065;-76
2024/01/03 09:16:24;;;;;;;46.97;7.05;;;;;;;;;;5029955;28;20421;-77
2024/01/03 09:18:50;;;;;;;33.38;5.45;;;;;;;;;;5029740;28;20537;-77
2024/01/03 09:21:16;;;;;;;42.35;5.00;;;;;;;;;;5029382;28;20049;-77
2024/01/03 09:23:43;;;;;;;35.10;6.13;;;;;;;;;;5029379;28;20038;-77
2024/01/03 09:26:10;;;;;;;32.55;5.00;;;;;;;;;;5029357;28;20148;-75
2024/01/03 09:28:38;;;;;;;40.88;4.45;;;;;;;;;;5029420;28;20576;-77
2024/01/03 09:31:05;;;;;;;30.73;4.50;;;;;;;;;;5029399;28;20408;-77
2024/01/03 09:33:31;;;;;;;35.22;4.68;;;;;;;;;;5061337;28;20231;-76
2024/01/03 09:35:57;;;;;;;40.38;5.22;;;;;;;;;;5028872;28;20119;-76
2024/01/03 09:38:23;;;;;;;30.77;4.78;;;;;;;;;;5029212;28;20068;-76
2024/01/03 09:40:50;;;;;;;47.22;6.07;;;;;;;;;;5060897;28;20071;-76
2024/01/03 09:43:16;;;;;;;34.97;5.13;;;;;;;;;;5028817;28;20073;-77
2024/01/03 09:45:43;;;;;;;12.50;1.88;;;;;;;;;;5028979;28;20026;-77
2024/01/03 09:48:09;;;;;;;20.75;2.67;;;;;;;;;;5027938;28;20021;-76
2024/01/03 09:50:35;;;;;;;10.93;2.10;;;;;;;;;;5045666;28;20064;-76
2024/01/03 09:53:02;;;;;;;13.68;2.53;;;;;;;;;;5049366;28;20021;-76
2024/01/03 09:55:29;;;;;;;17.48;2.80;;;;;;;;;;5032298;28;20033;-76
2024/01/03 09:57:55;;;;;;;17.33;2.70;;;;;;;;;;5029730;28;20064;-77
2024/01/03 10:00:23;;;;;;;23.45;2.83;;;;;;;;;;5029391;28;20575;-76
2024/01/03 10:02:50;;;;;;;25.50;2.80;;;;;;;;;;5029414;28;20044;-76
2024/01/03 10:05:19;;;;;;;29.83;3.97;;;;;;;;;;5029526;28;20025;-75
2024/01/03 10:07:45;;;;;;;35.00;4.03;;;;;;;;;;5029379;28;20117;-76
2024/01/03 10:10:11;;;;;;;28.27;3.92;;;;;;;;;;5061095;28;20505;-76
2024/01/03 10:12:38;;;;;;;32.80;4.15;;;;;;;;;;5029525;28;20112;-76
2024/01/03 10:15:17;;;;;;;34.35;4.53;;;;;;;;;;5027977;28;20128;-75
2024/01/03 10:17:45;;;;;;;29.70;4.93;;;;;;;;;;5029253;28;20053;-76
2024/01/03 10:20:27;;;;;;;34.55;4.63;;;;;;;;;;5029059;28;20025;-77
2024/01/03 10:23:20;;;;;;;35.53;4.88;;;;;;;;;;5028563;28;20115;-75
2024/01/03 10:25:47;;;;;;;47.65;6.05;;;;;;;;;;5027725;28;20406;-76
2024/01/03 10:28:15;;;;;;;31.85;6.50;;;;;;;;;;5028555;28;20124;-76
2024/01/03 10:30:41;;;;;;;44.70;5.03;;;;;;;;;;5028560;28;20030;-78
2024/01/03 10:33:08;;;;;;;40.95;5.63;;;;;;;;;;5030059;28;20033;-76
2024/01/03 10:35:41;;;;;;;40.72;6.47;;;;;;;;;;5029034;28;20157;-78
2024/01/03 10:38:07;;;;;;;37.55;5.47;;;;;;;;;;5028928;28;20041;-77
2024/01/03 10:40:34;;;;;;;29.65;3.63;;;;;;;;;;5028492;28;20094;-78
2024/01/03 10:43:00;;;;;;;34.58;4.53;;;;;;;;;;5028647;28;20029;-76
2024/01/03 10:45:27;;;;;;;30.40;4.22;;;;;;;;;;5028391;28;20411;-77
2024/01/03 10:47:53;;;;;;;36.35;4.43;;;;;;;;;;5031209;28;20083;-78
2024/01/03 10:50:20;;;;;;;28.80;4.07;;;;;;;;;;5032692;28;20080;-76
2024/01/03 10:52:46;;;;;;;33.50;4.65;;;;;;;;;;5032268;28;20037;-76
2024/01/03 10:55:17;;;;;;;34.17;4.70;;;;;;;;;;5032361;28;20402;-77
2024/01/03 10:57:43;;;;;;;;;;;;;;;;;;5032944;28;20459;-76
2024/01/03 11:00:12;;;;;;;24.98;4.75;;;;;;;;;;5032714;28;19913;-77
2024/01/03 11:02:43;;;;;;;28.77;6.03;;;;;;;;;;5032672;28;20037;-79
2024/01/03 11:05:15;;;;;;;28.33;4.97;;;;;;;;;;5032595;28;20064;-75
2024/01/03 11:07:44;;;;;;;36.08;4.93;;;;;;;;;;5032820;28;20025;-75
2024/01/03 11:10:10;;;;;;;31.10;4.72;;;;;;;;;;5031875;28;20030;-77
2024/01/03 11:12:36;;;;;;;36.25;3.85;;;;;;;;;;5032463;28;20407;-77
2024/01/03 11:15:22;;;;;;;29.70;4.72;;;;;;;;;;5031801;28;20045;-77
2024/01/03 11:17:49;;;;;;;38.80;4.05;;;;;;;;;;5032523;28;20056;-76
2024/01/03 11:20:15;;;;;;;34.50;5.15;;;;;;;;;;5032417;28;20112;-76
2024/01/03 11:23:04;;;;;;;29.65;4.47;;;;;;;;;;5032201;28;20040;-78
2024/01/03 11:25:49;;;;;;;33.60;4.53;;;;;;;;;;5031007;28;20035;-76
2024/01/03 11:28:31;;;;;;;29.77;4.07;;;;;;;;;;5032101;28;20029;-77
2024/01/03 11:30:58;;;;;;;29.05;4.82;;;;;;;;;;5031951;28;20091;-75
2024/01/03 11:33:30;;;;;;;25.92;4.68;;;;;;;;;;5031224;28;20042;-75
2024/01/03 11:35:58;;;;;;;37.17;4.13;;;;;;;;;;5080144;28;20052;-77
2024/01/03 11:38:46;;;;;;;29.75;4.65;;;;;;;;;;5050381;28;20405;-76
2024/01/03 11:41:16;;;;;;;41.05;6.38;;;;;;;;;;5051508;28;20347;-76
2024/01/03 11:43:42;;;;;;;27.08;5.18;;;;;;;;;;5051156;28;20072;-78
2024/01/03 11:46:12;;;;;;;31.30;5.40;;;;;;;;;;5051600;28;20025;-77
2024/01/03 11:48:38;;;;;;;26.52;4.43;;;;;;;;;;5051868;28;20124;-76
2024/01/03 11:51:24;;;;;;;27.80;5.00;;;;;;;;;;5051635;28;20037;-76
2024/01/03 11:53:51;;;;;;;39.70;6.63;;;;;;;;;;5050331;28;20108;-77
2024/01/03 11:56:27;;;;;;;30.88;5.57;;;;;;;;;;5030831;28;20124;-77
2024/01/03 11:58:55;;;;;;;36.65;5.28;;;;;;;;;;5031022;28;20163;-76
2024/01/03 12:01:21;;;;;;;33.50;5.90;;;;;;;;;;5030239;28;20033;-76
2024/01/03 12:03:47;;;;;;;41.03;6.13;;;;;;;;;;5031020;28;20052;-77
2024/01/03 12:06:13;;;;;;;29.50;4.95;;;;;;;;;;5029656;28;20038;-76
2024/01/03 12:08:39;;;;;;;28.80;4.90;;;;;;;;;;5029409;28;20491;-76
2024/01/03 12:11:05;;;;;;;35.25;6.82;;;;;;;;;;5031002;28;20029;-78
2024/01/03 12:13:32;;;;;;;35.22;5.13;;;;;;;;;;5031451;28;20056;-76
2024/01/03 12:16:01;;;;;;;41.75;6.55;;;;;;;;;;5031014;28;20555;-76
2024/01/03 12:18:27;;;;;;;42.33;6.57;;;;;;;;;;5031243;28;20033;-75
2024/01/03 12:20:53;;;;;;;38.08;6.63;;;;;;;;;;5030909;28;20065;-77
2024/01/03 12:23:20;;;;;;;44.35;7.35;;;;;;;;;;5031400;28;20052;-76
2024/01/03 12:25:46;;;;;;;37.95;5.85;;;;;;;;;;5030571;28;20025;-77
2024/01/03 12:28:19;;;;;;;42.83;7.20;;;;;;;;;;5031056;28;20407;-77
2024/01/03 12:30:45;;;;;;;45.20;6.43;;;;;;;;;;5030912;28;20037;-77
2024/01/03 12:33:13;;;;;;;47.00;6.53;;;;;;;;;;5032310;28;20442;-76
2024/01/03 12:35:39;;;;;;;47.10;7.03;;;;;;;;;;5031866;28;20058;-77
2024/01/03 12:38:06;;;;;;;36.78;5.57;;;;;;;;;;5031394;28;20044;-78
2024/01/03 12:40:32;;;;;;;18.92;4.10;;;;;;;;;;5030769;28;20025;-77
2024/01/03 12:42:58;;;;;;;32.03;5.22;;;;;;;;;;5030796;28;20056;-76
2024/01/03 12:45:24;;;;;;;56.67;7.40;;;;;;;;;;5062338;28;20417;-76
2024/01/03 12:47:50;;;;;;;59.17;9.05;;;;;;;;;;5029397;28;20050;-75
2024/01/03 12:50:17;;;;;;;62.15;8.27;;;;;;;;;;5030350;28;20380;-76
2024/01/03 12:52:43;;;;;;;67.38;8.68;;;;;;;;;;5030428;28;20535;-76
2024/01/03 12:55:09;;;;;;;62.70;8.77;;;;;;;;;;5029821;28;20030;-76
2024/01/03 12:57:35;;;;;;;71.00;8.60;;;;;;;;;;5029915;28;20034;-76
2024/01/03 13:00:01;;;;;;;50.13;8.25;;;;;;;;;;5029895;28;20037;-75
2024/01/03 13:02:28;;;;;;;56.10;7.78;;;;;;;;;;5030162;28;20483;-76
2024/01/03 13:04:54;;;;;;;57.10;9.52;;;;;;;;;;5029365;28;20025;-76
2024/01/03 13:07:21;;;;;;;50.78;6.68;;;;;;;;;;5030121;28;20025;-74
2024/01/03 13:09:47;;;;;;;48.83;6.95;;;;;;;;;;5029441;28;20045;-76
2024/01/03 13:12:13;;;;;;;58.42;7.85;;;;;;;;;;5031481;28;20469;-77
2024/01/03 13:14:39;;;;;;;49.47;8.50;;;;;;;;;;5031216;28;20407;-77
2024/01/03 13:17:05;;;;;;;46.88;6.68;;;;;;;;;;5061955;28;20087;-76
2024/01/03 13:19:31;;;;;;;52.00;7.38;;;;;;;;;;5030633;28;20435;-75
2024/01/03 13:21:59;;;;;;;49.28;7.07;;;;;;;;;;5030158;28;20394;-76
2024/01/03 13:24:25;;;;;;;45.42;6.28;;;;;;;;;;5029926;28;20048;-76
2024/01/03 13:26:51;;;;;;;42.63;5.50;;;;;;;;;;5061234;28;20442;-76
2024/01/03 13:29:17;;;;;;;51.78;6.90;;;;;;;;;;5029436;28;20052;-76
2024/01/03 13:31:43;;;;;;;42.83;5.63;;;;;;;;;;5029575;28;20052;-75
2024/01/03 13:34:09;;;;;;;37.28;6.72;;;;;;;;;;5060243;28;20042;-76
2024/01/03 13:36:36;;;;;;;49.40;6.90;;;;;;;;;;5029438;28;20037;-77
2024/01/03 13:39:02;;;;;;;40.67;6.43;;;;;;;;;;5029329;28;20045;-76
2024/01/03 13:41:29;;;;;;;36.53;5.53;;;;;;;;;;5027526;28;20025;-75
2024/01/03 13:43:56;;;;;;;50.00;7.38;;;;;;;;;;5060891;28;20033;-78
2024/01/03 13:46:25;;;;;;;43.92;7.95;;;;;;;;;;5029248;28;20044;-76
2024/01/03 13:48:51;;;;;;;40.00;7.78;;;;;;;;;;5029413;28;20033;-76
2024/01/03 13:51:21;;;;;;;45.72;6.85;;;;;;;;;;5029637;28;20021;-75
2024/01/03 13:53:48;;;;;;;53.15;6.80;;;;;;;;;;5029750;28;20427;-76
2024/01/03 13:56:19;;;;;;;36.95;5.88;;;;;;;;;;5043311;28;20508;-76
2024/01/03 13:58:46;;;;;;;46.00;5.93;;;;;;;;;;5049423;28;20029;-76
2024/01/03 14:01:12;;;;;;;61.10;8.88;;;;;;;;;;5049330;28;20029;-75
2024/01/03 14:03:39;;;;;;;42.05;7.03;;;;;;;;;;5048395;28;20037;-77
2024/01/03 14:06:05;;;;;;;44.47;7.25;;;;;;;;;;5048976;28;20045;-75
2024/01/03 14:08:31;;;;;;;44.17;6.95;;;;;;;;;;5049612;28;20021;-76
2024/01/03 14:10:57;;;;;;;41.38;6.68;;;;;;;;;;5049342;28;20431;-76
2024/01/03 14:13:24;;;;;;;39.60;6.55;;;;;;;;;;5049451;28;20037;-76
2024/01/03 14:15:50;;;;;;;62.58;7.97;;;;;;;;;;5049284;28;20155;-75
2024/01/03 14:18:16;;;;;;;50.70;7.07;;;;;;;;;;5049100;28;20040;-76
2024/01/03 14:20:42;;;;;;;42.55;5.97;;;;;;;;;;5065349;28;20115;-76
2024/01/03 14:23:08;;;;;;;49.10;6.70;;;;;;;;;;5053934;28;20102;-76
2024/01/03 14:25:34;;;;;;;29.92;4.15;;;;;;;;;;5051632;28;20021;-76
2024/01/03 14:28:01;;;;;;;24.33;4.60;;;;;;;;;;5052480;28;20048;-76
2024/01/03 14:30:27;;;;;;;28.38;4.65;;;;;;;;;;5052558;28;20048;-77